sensor_id;sensor_type;location;lat;lon;timestamp;P1;durP1;ratioP1;P2;durP2;ratioP2
5787;SDS011;2920;48.158;12.254;2022-07-24T00:01:33;12.38;;;7.85;;
5787;SDS011;2920;48.158;12.254;2022-07-24T00:03:58;10.15;;;8.27;;
5787;SDS011;2920;48.158;12.254;2022-07-24T00:06:23;10.48;;;8.48;;
5787;SDS011;2920;48.158;12.254;2022-07-24T00:08:49;10.50;;;8.00;;
5787;SDS011;2920;48.158;12.254;2022-07-24T00:11:14;8.82;;;7.07;;
5787;SDS011;2920;48.158;12.254;2022-07-24T00:13:40;10.00;;;6.97;;
5787;SDS011;2920;48.158;12.254;2022-07-24T00:16:05;9.80;;;7.20;;
5787;SDS011;2920;48.158;12.254;2022-07-24T00:18:31;12.25;;;7.65;;
5787;SDS011;2920;48.158;12.254;2022-07-24T00:20:56;8.65;;;6.47;;
5787;SDS011;2920;48.158;12.254;2022-07-24T00:23:22;8.45;;;6.60;;
5787;SDS011;2920;48.158;12.254;2022-07-24T00:25:50;10.35;;;8.07;;
5787;SDS011;2920;48.158;12.254;2022-07-24T00:28:16;9.90;;;7.65;;
5787;SDS011;2920;48.158;12.254;2022-07-24T00:30:41;9.73;;;7.45;;
5787;SDS011;2920;48.158;12.254;2022-07-24T00:33:07;11.45;;;7.40;;
5787;SDS011;2920;48.158;12.254;2022-07-24T00:35:32;10.95;;;7.55;;
5787;SDS011;2920;48.158;12.254;2022-07-24T00:37:57;11.30;;;8.88;;
5787;SDS011;2920;48.158;12.254;2022-07-24T00:40:23;11.52;;;8.85;;
5787;SDS011;2920;48.158;12.254;2022-07-24T00:42:49;13.35;;;8.82;;
5787;SDS011;2920;48.158;12.254;2022-07-24T00:45:16;9.23;;;7.30;;
5787;SDS011;2920;48.158;12.254;2022-07-24T00:47:41;10.85;;;8.02;;
5787;SDS011;2920;48.158;12.254;2022-07-24T00:50:06;9.23;;;6.57;;
5787;SDS011;2920;48.158;12.254;2022-07-24T00:52:32;11.05;;;7.97;;
5787;SDS011;2920;48.158;12.254;2022-07-24T00:54:57;11.10;;;7.35;;
5787;SDS011;2920;48.158;12.254;2022-07-24T00:57:23;9.77;;;7.35;;
5787;SDS011;2920;48.158;12.254;2022-07-24T00:59:48;8.98;;;6.63;;
5787;SDS011;2920;48.158;12.254;2022-07-24T01:02:13;10.32;;;6.50;;
5787;SDS011;2920;48.158;12.254;2022-07-24T01:04:39;11.32;;;8.10;;
5787;SDS011;2920;48.158;12.254;2022-07-24T01:07:05;9.77;;;7.80;;
5787;SDS011;2920;48.158;12.254;2022-07-24T01:09:30;8.57;;;6.97;;
5787;SDS011;2920;48.158;12.254;2022-07-24T01:11:56;11.23;;;7.65;;
5787;SDS011;2920;48.158;12.254;2022-07-24T01:14:22;9.27;;;7.07;;
5787;SDS011;2920;48.158;12.254;2022-07-24T01:16:47;9.27;;;7.35;;
5787;SDS011;2920;48.158;12.254;2022-07-24T01:19:13;9.57;;;7.22;;
5787;SDS011;2920;48.158;12.254;2022-07-24T01:21:38;10.05;;;6.97;;
5787;SDS011;2920;48.158;12.254;2022-07-24T01:24:04;8.98;;;6.30;;
5787;SDS011;2920;48.158;12.254;2022-07-24T01:26:30;10.82;;;7.60;;
5787;SDS011;2920;48.158;12.254;2022-07-24T01:28:55;9.60;;;6.88;;
5787;SDS011;2920;48.158;12.254;2022-07-24T01:31:21;10.48;;;7.57;;
5787;SDS011;2920;48.158;12.254;2022-07-24T01:33:46;10.27;;;8.32;;
5787;SDS011;2920;48.158;12.254;2022-07-24T01:36:11;10.45;;;7.53;;
5787;SDS011;2920;48.158;12.254;2022-07-24T01:38:37;10.90;;;7.38;;
5787;SDS011;2920;48.158;12.254;2022-07-24T01:41:02;10.15;;;7.32;;
5787;SDS011;2920;48.158;12.254;2022-07-24T01:43:28;7.88;;;7.07;;
5787;SDS011;2920;48.158;12.254;2022-07-24T01:45:53;11.05;;;8.43;;
5787;SDS011;2920;48.158;12.254;2022-07-24T01:48:19;10.32;;;8.57;;
5787;SDS011;2920;48.158;12.254;2022-07-24T01:50:44;10.10;;;8.30;;
5787;SDS011;2920;48.158;12.254;2022-07-24T01:53:09;10.88;;;8.20;;
5787;SDS011;2920;48.158;12.254;2022-07-24T01:55:35;10.48;;;7.93;;
5787;SDS011;2920;48.158;12.254;2022-07-24T01:58:00;11.65;;;8.77;;
5787;SDS011;2920;48.158;12.254;2022-07-24T02:00:25;11.85;;;8.52;;
5787;SDS011;2920;48.158;12.254;2022-07-24T02:02:51;10.05;;;7.80;;
5787;SDS011;2920;48.158;12.254;2022-07-24T02:05:16;10.95;;;8.15;;
5787;SDS011;2920;48.158;12.254;2022-07-24T02:07:42;10.45;;;8.00;;
5787;SDS011;2920;48.158;12.254;2022-07-24T02:10:09;11.88;;;7.75;;
5787;SDS011;2920;48.158;12.254;2022-07-24T02:12:35;12.35;;;8.80;;
5787;SDS011;2920;48.158;12.254;2022-07-24T02:15:01;9.18;;;7.45;;
5787;SDS011;2920;48.158;12.254;2022-07-24T02:17:26;9.35;;;6.60;;
5787;SDS011;2920;48.158;12.254;2022-07-24T02:19:52;10.95;;;8.38;;
5787;SDS011;2920;48.158;12.254;2022-07-24T02:22:17;16.58;;;7.22;;
5787;SDS011;2920;48.158;12.254;2022-07-24T02:24:42;8.05;;;6.97;;
5787;SDS011;2920;48.158;12.254;2022-07-24T02:27:08;11.93;;;7.45;;
5787;SDS011;2920;48.158;12.254;2022-07-24T02:29:33;9.70;;;7.40;;
5787;SDS011;2920;48.158;12.254;2022-07-24T02:31:59;9.10;;;7.05;;
5787;SDS011;2920;48.158;12.254;2022-07-24T02:34:24;9.13;;;7.35;;
5787;SDS011;2920;48.158;12.254;2022-07-24T02:36:50;8.77;;;6.95;;
5787;SDS011;2920;48.158;12.254;2022-07-24T02:39:15;9.55;;;7.53;;
5787;SDS011;2920;48.158;12.254;2022-07-24T02:41:40;10.60;;;7.57;;
5787;SDS011;2920;48.158;12.254;2022-07-24T02:44:06;8.93;;;6.93;;
5787;SDS011;2920;48.158;12.254;2022-07-24T02:46:31;10.38;;;7.25;;
5787;SDS011;2920;48.158;12.254;2022-07-24T02:48:56;11.52;;;7.55;;
5787;SDS011;2920;48.158;12.254;2022-07-24T02:51:22;9.15;;;7.65;;
5787;SDS011;2920;48.158;12.254;2022-07-24T02:53:47;11.77;;;7.82;;
5787;SDS011;2920;48.158;12.254;2022-07-24T02:56:12;10.98;;;7.72;;
5787;SDS011;2920;48.158;12.254;2022-07-24T02:58:38;10.07;;;7.78;;
5787;SDS011;2920;48.158;12.254;2022-07-24T03:01:03;8.70;;;7.30;;
5787;SDS011;2920;48.158;12.254;2022-07-24T03:03:28;14.43;;;8.30;;
5787;SDS011;2920;48.158;12.254;2022-07-24T03:05:54;10.52;;;6.90;;
5787;SDS011;2920;48.158;12.254;2022-07-24T03:08:19;14.65;;;9.50;;
5787;SDS011;2920;48.158;12.254;2022-07-24T03:10:44;10.85;;;8.50;;
5787;SDS011;2920;48.158;12.254;2022-07-24T03:13:10;12.27;;;9.00;;
5787;SDS011;2920;48.158;12.254;2022-07-24T03:15:35;18.20;;;9.90;;
5787;SDS011;2920;48.158;12.254;2022-07-24T03:18:01;10.05;;;8.05;;
5787;SDS011;2920;48.158;12.254;2022-07-24T03:20:27;11.43;;;7.60;;
5787;SDS011;2920;48.158;12.254;2022-07-24T03:22:53;9.68;;;7.88;;
5787;SDS011;2920;48.158;12.254;2022-07-24T03:25:19;11.23;;;7.97;;
5787;SDS011;2920;48.158;12.254;2022-07-24T03:27:45;12.52;;;7.55;;
5787;SDS011;2920;48.158;12.254;2022-07-24T03:30:11;10.35;;;8.45;;
5787;SDS011;2920;48.158;12.254;2022-07-24T03:32:37;11.88;;;8.57;;
5787;SDS011;2920;48.158;12.254;2022-07-24T03:35:02;9.65;;;7.95;;
5787;SDS011;2920;48.158;12.254;2022-07-24T03:37:28;11.20;;;8.50;;
5787;SDS011;2920;48.158;12.254;2022-07-24T03:39:53;13.90;;;8.50;;
5787;SDS011;2920;48.158;12.254;2022-07-24T03:42:19;12.07;;;8.38;;
5787;SDS011;2920;48.158;12.254;2022-07-24T03:44:44;12.75;;;8.25;;
5787;SDS011;2920;48.158;12.254;2022-07-24T03:47:10;11.10;;;8.45;;
5787;SDS011;2920;48.158;12.254;2022-07-24T03:49:35;13.35;;;9.13;;
5787;SDS011;2920;48.158;12.254;2022-07-24T03:52:01;14.32;;;9.10;;
5787;SDS011;2920;48.158;12.254;2022-07-24T03:54:26;14.30;;;8.68;;
5787;SDS011;2920;48.158;12.254;2022-07-24T03:56:51;11.07;;;8.52;;
5787;SDS011;2920;48.158;12.254;2022-07-24T03:59:17;12.63;;;9.10;;
5787;SDS011;2920;48.158;12.254;2022-07-24T04:01:43;13.80;;;9.10;;
5787;SDS011;2920;48.158;12.254;2022-07-24T04:04:08;13.13;;;8.38;;
5787;SDS011;2920;48.158;12.254;2022-07-24T04:06:34;11.55;;;8.43;;
5787;SDS011;2920;48.158;12.254;2022-07-24T04:09:00;11.60;;;8.82;;
5787;SDS011;2920;48.158;12.254;2022-07-24T04:11:26;11.98;;;8.60;;
5787;SDS011;2920;48.158;12.254;2022-07-24T04:13:52;10.80;;;8.57;;
5787;SDS011;2920;48.158;12.254;2022-07-24T04:16:17;10.40;;;8.45;;
5787;SDS011;2920;48.158;12.254;2022-07-24T04:18:43;13.25;;;9.90;;
5787;SDS011;2920;48.158;12.254;2022-07-24T04:21:08;12.38;;;8.50;;
5787;SDS011;2920;48.158;12.254;2022-07-24T04:23:33;12.73;;;9.05;;
5787;SDS011;2920;48.158;12.254;2022-07-24T04:25:59;13.57;;;9.23;;
5787;SDS011;2920;48.158;12.254;2022-07-24T04:28:24;10.20;;;7.90;;
5787;SDS011;2920;48.158;12.254;2022-07-24T04:30:49;10.57;;;8.65;;
5787;SDS011;2920;48.158;12.254;2022-07-24T04:33:15;12.07;;;8.35;;
5787;SDS011;2920;48.158;12.254;2022-07-24T04:35:40;12.52;;;9.35;;
5787;SDS011;2920;48.158;12.254;2022-07-24T04:38:05;12.77;;;9.50;;
5787;SDS011;2920;48.158;12.254;2022-07-24T04:40:31;12.18;;;8.02;;
5787;SDS011;2920;48.158;12.254;2022-07-24T04:42:56;13.00;;;9.30;;
5787;SDS011;2920;48.158;12.254;2022-07-24T04:45:21;11.00;;;8.75;;
5787;SDS011;2920;48.158;12.254;2022-07-24T04:47:47;12.23;;;9.60;;
5787;SDS011;2920;48.158;12.254;2022-07-24T04:50:13;12.18;;;8.57;;
5787;SDS011;2920;48.158;12.254;2022-07-24T04:52:38;14.30;;;9.80;;
5787;SDS011;2920;48.158;12.254;2022-07-24T04:55:04;12.18;;;9.45;;
5787;SDS011;2920;48.158;12.254;2022-07-24T04:57:29;15.15;;;10.13;;
5787;SDS011;2920;48.158;12.254;2022-07-24T04:59:55;12.93;;;9.98;;
5787;SDS011;2920;48.158;12.254;2022-07-24T05:02:20;13.45;;;10.43;;
5787;SDS011;2920;48.158;12.254;2022-07-24T05:04:45;15.65;;;11.15;;
5787;SDS011;2920;48.158;12.254;2022-07-24T05:07:11;14.90;;;9.85;;
5787;SDS011;2920;48.158;12.254;2022-07-24T05:09:36;15.02;;;9.60;;
5787;SDS011;2920;48.158;12.254;2022-07-24T05:12:02;13.23;;;9.65;;
5787;SDS011;2920;48.158;12.254;2022-07-24T05:14:27;13.02;;;9.30;;
5787;SDS011;2920;48.158;12.254;2022-07-24T05:16:53;13.52;;;9.45;;
5787;SDS011;2920;48.158;12.254;2022-07-24T05:19:18;13.35;;;9.07;;
5787;SDS011;2920;48.158;12.254;2022-07-24T05:21:43;12.15;;;9.38;;
5787;SDS011;2920;48.158;12.254;2022-07-24T05:24:09;14.05;;;9.82;;
5787;SDS011;2920;48.158;12.254;2022-07-24T05:26:34;13.07;;;9.93;;
5787;SDS011;2920;48.158;12.254;2022-07-24T05:29:00;12.52;;;8.93;;
5787;SDS011;2920;48.158;12.254;2022-07-24T05:31:26;10.80;;;8.20;;
5787;SDS011;2920;48.158;12.254;2022-07-24T05:33:52;10.15;;;8.25;;
5787;SDS011;2920;48.158;12.254;2022-07-24T05:36:17;13.52;;;8.73;;
5787;SDS011;2920;48.158;12.254;2022-07-24T05:38:43;13.15;;;8.25;;
5787;SDS011;2920;48.158;12.254;2022-07-24T05:41:09;10.88;;;8.43;;
5787;SDS011;2920;48.158;12.254;2022-07-24T05:43:35;10.40;;;8.10;;
5787;SDS011;2920;48.158;12.254;2022-07-24T05:46:00;11.00;;;8.95;;
5787;SDS011;2920;48.158;12.254;2022-07-24T05:48:26;10.50;;;7.82;;
5787;SDS011;2920;48.158;12.254;2022-07-24T05:50:51;10.68;;;8.07;;
5787;SDS011;2920;48.158;12.254;2022-07-24T05:53:17;10.30;;;8.00;;
5787;SDS011;2920;48.158;12.254;2022-07-24T05:55:42;10.95;;;8.48;;
5787;SDS011;2920;48.158;12.254;2022-07-24T05:58:07;12.15;;;9.40;;
5787;SDS011;2920;48.158;12.254;2022-07-24T06:00:33;14.95;;;10.07;;
5787;SDS011;2920;48.158;12.254;2022-07-24T06:02:58;13.73;;;10.57;;
5787;SDS011;2920;48.158;12.254;2022-07-24T06:05:23;11.45;;;9.25;;
5787;SDS011;2920;48.158;12.254;2022-07-24T06:07:49;10.75;;;9.48;;
5787;SDS011;2920;48.158;12.254;2022-07-24T06:10:14;11.32;;;8.60;;
5787;SDS011;2920;48.158;12.254;2022-07-24T06:12:39;14.48;;;10.20;;
5787;SDS011;2920;48.158;12.254;2022-07-24T06:15:05;14.02;;;9.85;;
5787;SDS011;2920;48.158;12.254;2022-07-24T06:17:31;11.18;;;8.05;;
5787;SDS011;2920;48.158;12.254;2022-07-24T06:19:56;12.70;;;8.15;;
5787;SDS011;2920;48.158;12.254;2022-07-24T06:22:21;12.43;;;9.15;;
5787;SDS011;2920;48.158;12.254;2022-07-24T06:24:46;12.02;;;8.48;;
5787;SDS011;2920;48.158;12.254;2022-07-24T06:27:12;10.95;;;8.70;;
5787;SDS011;2920;48.158;12.254;2022-07-24T06:29:37;10.32;;;7.72;;
5787;SDS011;2920;48.158;12.254;2022-07-24T06:32:03;13.35;;;7.78;;
5787;SDS011;2920;48.158;12.254;2022-07-24T06:34:28;11.43;;;8.45;;
5787;SDS011;2920;48.158;12.254;2022-07-24T06:36:53;11.77;;;9.02;;
5787;SDS011;2920;48.158;12.254;2022-07-24T06:39:19;12.82;;;9.40;;
5787;SDS011;2920;48.158;12.254;2022-07-24T06:41:44;12.35;;;8.25;;
5787;SDS011;2920;48.158;12.254;2022-07-24T06:44:10;11.50;;;8.10;;
5787;SDS011;2920;48.158;12.254;2022-07-24T06:46:35;12.40;;;9.57;;
5787;SDS011;2920;48.158;12.254;2022-07-24T06:49:00;11.20;;;8.88;;
5787;SDS011;2920;48.158;12.254;2022-07-24T06:51:26;12.52;;;8.85;;
5787;SDS011;2920;48.158;12.254;2022-07-24T06:53:51;13.10;;;9.48;;
5787;SDS011;2920;48.158;12.254;2022-07-24T06:56:16;11.73;;;9.23;;
5787;SDS011;2920;48.158;12.254;2022-07-24T06:58:42;17.08;;;9.52;;
5787;SDS011;2920;48.158;12.254;2022-07-24T07:01:07;11.00;;;9.43;;
5787;SDS011;2920;48.158;12.254;2022-07-24T07:03:32;12.27;;;9.30;;
5787;SDS011;2920;48.158;12.254;2022-07-24T07:05:58;11.05;;;8.32;;
5787;SDS011;2920;48.158;12.254;2022-07-24T07:08:23;9.32;;;7.80;;
5787;SDS011;2920;48.158;12.254;2022-07-24T07:10:48;11.20;;;8.25;;
5787;SDS011;2920;48.158;12.254;2022-07-24T07:13:14;16.42;;;9.18;;
5787;SDS011;2920;48.158;12.254;2022-07-24T07:15:39;12.38;;;9.10;;
5787;SDS011;2920;48.158;12.254;2022-07-24T07:18:04;12.82;;;8.13;;
5787;SDS011;2920;48.158;12.254;2022-07-24T07:20:30;11.05;;;7.97;;
5787;SDS011;2920;48.158;12.254;2022-07-24T07:22:55;10.77;;;8.15;;
5787;SDS011;2920;48.158;12.254;2022-07-24T07:25:20;11.80;;;9.43;;
5787;SDS011;2920;48.158;12.254;2022-07-24T07:27:46;14.32;;;10.27;;
5787;SDS011;2920;48.158;12.254;2022-07-24T07:30:11;13.10;;;8.40;;
5787;SDS011;2920;48.158;12.254;2022-07-24T07:32:37;24.73;;;8.30;;
5787;SDS011;2920;48.158;12.254;2022-07-24T07:35:03;11.82;;;7.97;;
5787;SDS011;2920;48.158;12.254;2022-07-24T07:37:29;12.50;;;7.53;;
5787;SDS011;2920;48.158;12.254;2022-07-24T07:39:54;9.95;;;7.68;;
5787;SDS011;2920;48.158;12.254;2022-07-24T07:42:19;12.23;;;8.57;;
5787;SDS011;2920;48.158;12.254;2022-07-24T07:44:45;12.25;;;8.45;;
5787;SDS011;2920;48.158;12.254;2022-07-24T07:47:10;9.60;;;8.25;;
5787;SDS011;2920;48.158;12.254;2022-07-24T07:49:35;8.52;;;7.63;;
5787;SDS011;2920;48.158;12.254;2022-07-24T07:52:01;11.82;;;8.25;;
5787;SDS011;2920;48.158;12.254;2022-07-24T07:54:26;8.75;;;7.38;;
5787;SDS011;2920;48.158;12.254;2022-07-24T07:56:52;8.05;;;6.88;;
5787;SDS011;2920;48.158;12.254;2022-07-24T07:59:17;9.15;;;7.90;;
5787;SDS011;2920;48.158;12.254;2022-07-24T08:01:43;13.05;;;9.27;;
5787;SDS011;2920;48.158;12.254;2022-07-24T08:04:08;9.15;;;7.53;;
5787;SDS011;2920;48.158;12.254;2022-07-24T08:06:33;10.65;;;7.90;;
5787;SDS011;2920;48.158;12.254;2022-07-24T08:08:59;12.63;;;10.80;;
5787;SDS011;2920;48.158;12.254;2022-07-24T08:11:24;11.75;;;8.77;;
5787;SDS011;2920;48.158;12.254;2022-07-24T08:13:49;9.32;;;7.50;;
5787;SDS011;2920;48.158;12.254;2022-07-24T08:16:15;10.93;;;8.98;;
5787;SDS011;2920;48.158;12.254;2022-07-24T08:18:40;8.48;;;7.47;;
5787;SDS011;2920;48.158;12.254;2022-07-24T08:21:06;8.23;;;7.43;;
5787;SDS011;2920;48.158;12.254;2022-07-24T08:23:31;12.10;;;9.23;;
5787;SDS011;2920;48.158;12.254;2022-07-24T08:25:56;9.30;;;8.05;;
5787;SDS011;2920;48.158;12.254;2022-07-24T08:28:22;11.32;;;9.50;;
5787;SDS011;2920;48.158;12.254;2022-07-24T08:30:48;11.45;;;8.35;;
5787;SDS011;2920;48.158;12.254;2022-07-24T08:33:16;11.82;;;8.98;;
5787;SDS011;2920;48.158;12.254;2022-07-24T08:35:42;10.27;;;9.05;;
5787;SDS011;2920;48.158;12.254;2022-07-24T08:38:07;9.38;;;8.38;;
5787;SDS011;2920;48.158;12.254;2022-07-24T08:40:33;8.55;;;7.75;;
5787;SDS011;2920;48.158;12.254;2022-07-24T08:43:01;11.00;;;7.40;;
5787;SDS011;2920;48.158;12.254;2022-07-24T08:45:27;10.13;;;8.20;;
5787;SDS011;2920;48.158;12.254;2022-07-24T08:47:52;9.07;;;8.05;;
5787;SDS011;2920;48.158;12.254;2022-07-24T08:50:20;10.80;;;8.27;;
5787;SDS011;2920;48.158;12.254;2022-07-24T08:52:45;9.02;;;7.65;;
5787;SDS011;2920;48.158;12.254;2022-07-24T08:55:11;11.45;;;8.20;;
5787;SDS011;2920;48.158;12.254;2022-07-24T08:57:36;9.15;;;8.25;;
5787;SDS011;2920;48.158;12.254;2022-07-24T09:00:03;8.95;;;7.82;;
5787;SDS011;2920;48.158;12.254;2022-07-24T09:02:29;7.70;;;6.93;;
5787;SDS011;2920;48.158;12.254;2022-07-24T09:04:58;14.10;;;7.13;;
5787;SDS011;2920;48.158;12.254;2022-07-24T09:07:25;10.13;;;7.60;;
5787;SDS011;2920;48.158;12.254;2022-07-24T09:15:00;7.88;;;6.82;;
5787;SDS011;2920;48.158;12.254;2022-07-24T09:17:26;8.77;;;7.72;;
5787;SDS011;2920;48.158;12.254;2022-07-24T09:19:58;8.20;;;6.97;;
5787;SDS011;2920;48.158;12.254;2022-07-24T09:22:26;9.57;;;6.88;;
5787;SDS011;2920;48.158;12.254;2022-07-24T09:25:05;7.80;;;7.00;;
5787;SDS011;2920;48.158;12.254;2022-07-24T09:27:33;7.85;;;6.78;;
5787;SDS011;2920;48.158;12.254;2022-07-24T09:29:59;7.30;;;6.60;;
5787;SDS011;2920;48.158;12.254;2022-07-24T09:32:25;7.78;;;6.72;;
5787;SDS011;2920;48.158;12.254;2022-07-24T09:34:51;7.55;;;6.78;;
5787;SDS011;2920;48.158;12.254;2022-07-24T09:37:17;8.27;;;6.95;;
5787;SDS011;2920;48.158;12.254;2022-07-24T09:39:43;8.07;;;7.22;;
5787;SDS011;2920;48.158;12.254;2022-07-24T09:42:09;10.10;;;7.22;;
5787;SDS011;2920;48.158;12.254;2022-07-24T09:44:35;8.35;;;7.45;;
5787;SDS011;2920;48.158;12.254;2022-07-24T09:47:02;7.50;;;6.80;;
5787;SDS011;2920;48.158;12.254;2022-07-24T09:52:14;7.68;;;6.80;;
5787;SDS011;2920;48.158;12.254;2022-07-24T09:57:23;7.20;;;6.50;;
5787;SDS011;2920;48.158;12.254;2022-07-24T10:00:00;8.10;;;7.30;;
5787;SDS011;2920;48.158;12.254;2022-07-24T10:02:28;8.30;;;7.50;;
5787;SDS011;2920;48.158;12.254;2022-07-24T10:04:55;10.43;;;7.45;;
5787;SDS011;2920;48.158;12.254;2022-07-24T10:07:22;7.10;;;6.40;;
5787;SDS011;2920;48.158;12.254;2022-07-24T10:09:50;7.75;;;6.47;;
5787;SDS011;2920;48.158;12.254;2022-07-24T10:12:18;9.07;;;7.03;;
5787;SDS011;2920;48.158;12.254;2022-07-24T10:14:44;7.05;;;6.35;;
5787;SDS011;2920;48.158;12.254;2022-07-24T10:17:11;7.38;;;6.68;;
5787;SDS011;2920;48.158;12.254;2022-07-24T10:19:44;6.82;;;6.13;;
5787;SDS011;2920;48.158;12.254;2022-07-24T10:22:14;8.40;;;6.43;;
5787;SDS011;2920;48.158;12.254;2022-07-24T10:29:47;8.83;;;7.03;;
5787;SDS011;2920;48.158;12.254;2022-07-24T10:32:13;7.70;;;7.00;;
5787;SDS011;2920;48.158;12.254;2022-07-24T10:34:43;7.53;;;6.70;;
5787;SDS011;2920;48.158;12.254;2022-07-24T10:45:30;7.30;;;6.60;;
5787;SDS011;2920;48.158;12.254;2022-07-24T10:47:56;34.38;;;8.93;;
5787;SDS011;2920;48.158;12.254;2022-07-24T10:50:22;8.40;;;7.32;;
5787;SDS011;2920;48.158;12.254;2022-07-24T10:52:48;7.75;;;6.75;;
5787;SDS011;2920;48.158;12.254;2022-07-24T10:55:29;8.18;;;7.38;;
5787;SDS011;2920;48.158;12.254;2022-07-24T11:00:39;7.63;;;6.93;;
5787;SDS011;2920;48.158;12.254;2022-07-24T11:08:36;7.07;;;6.35;;
5787;SDS011;2920;48.158;12.254;2022-07-24T11:11:06;8.00;;;7.20;;
5787;SDS011;2920;48.158;12.254;2022-07-24T11:21:33;7.55;;;6.60;;
5787;SDS011;2920;48.158;12.254;2022-07-24T11:29:31;8.15;;;7.35;;
5787;SDS011;2920;48.158;12.254;2022-07-24T11:32:01;7.82;;;7.13;;
5787;SDS011;2920;48.158;12.254;2022-07-24T11:34:32;7.97;;;6.85;;
5787;SDS011;2920;48.158;12.254;2022-07-24T11:36:59;7.63;;;6.93;;
5787;SDS011;2920;48.158;12.254;2022-07-24T11:39:29;7.20;;;6.50;;
5787;SDS011;2920;48.158;12.254;2022-07-24T11:42:00;7.72;;;7.03;;
5787;SDS011;2920;48.158;12.254;2022-07-24T11:44:28;7.90;;;7.13;;
5787;SDS011;2920;48.158;12.254;2022-07-24T11:46:56;10.15;;;7.25;;
5787;SDS011;2920;48.158;12.254;2022-07-24T11:49:23;7.40;;;6.80;;
5787;SDS011;2920;48.158;12.254;2022-07-24T11:51:49;7.47;;;6.78;;
5787;SDS011;2920;48.158;12.254;2022-07-24T11:54:27;8.38;;;7.57;;
5787;SDS011;2920;48.158;12.254;2022-07-24T11:56:53;6.82;;;6.22;;
5787;SDS011;2920;48.158;12.254;2022-07-24T11:59:24;7.25;;;6.55;;
5787;SDS011;2920;48.158;12.254;2022-07-24T12:02:03;6.32;;;5.75;;
5787;SDS011;2920;48.158;12.254;2022-07-24T12:04:33;8.15;;;7.38;;
5787;SDS011;2920;48.158;12.254;2022-07-24T12:06:59;7.75;;;7.05;;
5787;SDS011;2920;48.158;12.254;2022-07-24T12:09:25;7.85;;;6.57;;
5787;SDS011;2920;48.158;12.254;2022-07-24T12:11:51;7.05;;;6.25;;
5787;SDS011;2920;48.158;12.254;2022-07-24T12:14:18;6.88;;;6.28;;
5787;SDS011;2920;48.158;12.254;2022-07-24T12:16:53;9.68;;;6.68;;
5787;SDS011;2920;48.158;12.254;2022-07-24T12:19:20;17.33;;;7.38;;
5787;SDS011;2920;48.158;12.254;2022-07-24T12:21:48;7.28;;;6.60;;
5787;SDS011;2920;48.158;12.254;2022-07-24T12:24:15;6.80;;;6.10;;
5787;SDS011;2920;48.158;12.254;2022-07-24T12:26:50;7.32;;;6.63;;
5787;SDS011;2920;48.158;12.254;2022-07-24T12:29:21;8.65;;;6.78;;
5787;SDS011;2920;48.158;12.254;2022-07-24T12:31:48;8.13;;;7.20;;
5787;SDS011;2920;48.158;12.254;2022-07-24T12:34:14;7.60;;;6.90;;
5787;SDS011;2920;48.158;12.254;2022-07-24T12:36:40;8.13;;;7.43;;
5787;SDS011;2920;48.158;12.254;2022-07-24T12:39:06;8.10;;;7.10;;
5787;SDS011;2920;48.158;12.254;2022-07-24T12:41:40;7.13;;;6.43;;
5787;SDS011;2920;48.158;12.254;2022-07-24T12:44:07;7.85;;;7.05;;
5787;SDS011;2920;48.158;12.254;2022-07-24T12:46:34;8.93;;;7.13;;
5787;SDS011;2920;48.158;12.254;2022-07-24T12:51:25;7.78;;;6.97;;
5787;SDS011;2920;48.158;12.254;2022-07-24T12:53:54;9.25;;;7.85;;
5787;SDS011;2920;48.158;12.254;2022-07-24T12:56:20;8.05;;;7.22;;
5787;SDS011;2920;48.158;12.254;2022-07-24T12:58:47;10.48;;;7.20;;
5787;SDS011;2920;48.158;12.254;2022-07-24T13:01:12;8.80;;;7.65;;
5787;SDS011;2920;48.158;12.254;2022-07-24T13:03:37;8.13;;;7.32;;
5787;SDS011;2920;48.158;12.254;2022-07-24T13:06:03;8.02;;;7.22;;
5787;SDS011;2920;48.158;12.254;2022-07-24T13:08:28;9.50;;;7.28;;
5787;SDS011;2920;48.158;12.254;2022-07-24T13:10:54;8.68;;;7.72;;
5787;SDS011;2920;48.158;12.254;2022-07-24T13:13:20;8.38;;;7.57;;
5787;SDS011;2920;48.158;12.254;2022-07-24T13:15:46;7.77;;;7.07;;
5787;SDS011;2920;48.158;12.254;2022-07-24T13:18:11;7.82;;;7.10;;
5787;SDS011;2920;48.158;12.254;2022-07-24T13:20:36;7.33;;;6.63;;
5787;SDS011;2920;48.158;12.254;2022-07-24T13:23:01;7.65;;;6.82;;
5787;SDS011;2920;48.158;12.254;2022-07-24T13:25:27;8.00;;;7.20;;
5787;SDS011;2920;48.158;12.254;2022-07-24T13:27:52;6.88;;;6.28;;
5787;SDS011;2920;48.158;12.254;2022-07-24T13:30:18;7.60;;;6.90;;
5787;SDS011;2920;48.158;12.254;2022-07-24T13:32:43;7.10;;;6.50;;
5787;SDS011;2920;48.158;12.254;2022-07-24T13:35:09;7.53;;;6.82;;
5787;SDS011;2920;48.158;12.254;2022-07-24T13:37:34;7.40;;;6.68;;
5787;SDS011;2920;48.158;12.254;2022-07-24T13:40:00;7.70;;;6.90;;
5787;SDS011;2920;48.158;12.254;2022-07-24T13:42:25;7.32;;;6.68;;
5787;SDS011;2920;48.158;12.254;2022-07-24T13:44:51;7.30;;;6.60;;
5787;SDS011;2920;48.158;12.254;2022-07-24T13:47:17;7.18;;;6.47;;
5787;SDS011;2920;48.158;12.254;2022-07-24T13:49:42;9.40;;;7.00;;
5787;SDS011;2920;48.158;12.254;2022-07-24T13:52:08;8.13;;;7.32;;
5787;SDS011;2920;48.158;12.254;2022-07-24T13:54:34;7.32;;;6.63;;
5787;SDS011;2920;48.158;12.254;2022-07-24T13:57:00;7.63;;;6.93;;
5787;SDS011;2920;48.158;12.254;2022-07-24T13:59:28;7.15;;;6.47;;
5787;SDS011;2920;48.158;12.254;2022-07-24T14:01:53;6.57;;;5.97;;
5787;SDS011;2920;48.158;12.254;2022-07-24T14:04:18;7.30;;;6.60;;
5787;SDS011;2920;48.158;12.254;2022-07-24T14:06:44;7.83;;;7.13;;
5787;SDS011;2920;48.158;12.254;2022-07-24T14:09:09;7.87;;;7.07;;
5787;SDS011;2920;48.158;12.254;2022-07-24T14:11:34;7.80;;;7.07;;
5787;SDS011;2920;48.158;12.254;2022-07-24T14:14:00;8.73;;;7.10;;
5787;SDS011;2920;48.158;12.254;2022-07-24T14:16:25;7.43;;;6.80;;
5787;SDS011;2920;48.158;12.254;2022-07-24T14:18:50;7.33;;;6.63;;
5787;SDS011;2920;48.158;12.254;2022-07-24T14:21:16;8.45;;;7.32;;
5787;SDS011;2920;48.158;12.254;2022-07-24T14:23:41;7.13;;;6.43;;
5787;SDS011;2920;48.158;12.254;2022-07-24T14:26:06;7.87;;;7.17;;
5787;SDS011;2920;48.158;12.254;2022-07-24T14:28:32;8.47;;;6.93;;
5787;SDS011;2920;48.158;12.254;2022-07-24T14:30:57;6.85;;;6.25;;
5787;SDS011;2920;48.158;12.254;2022-07-24T14:33:22;9.07;;;6.47;;
5787;SDS011;2920;48.158;12.254;2022-07-24T14:35:48;7.25;;;6.55;;
5787;SDS011;2920;48.158;12.254;2022-07-24T14:38:14;36.47;;;8.07;;
5787;SDS011;2920;48.158;12.254;2022-07-24T14:40:39;7.18;;;6.50;;
5787;SDS011;2920;48.158;12.254;2022-07-24T14:43:04;8.85;;;7.20;;
5787;SDS011;2920;48.158;12.254;2022-07-24T14:45:30;11.15;;;6.28;;
5787;SDS011;2920;48.158;12.254;2022-07-24T14:47:55;8.02;;;7.25;;
5787;SDS011;2920;48.158;12.254;2022-07-24T14:50:20;8.13;;;7.33;;
5787;SDS011;2920;48.158;12.254;2022-07-24T14:52:46;8.50;;;6.90;;
5787;SDS011;2920;48.158;12.254;2022-07-24T14:55:11;9.27;;;6.90;;
5787;SDS011;2920;48.158;12.254;2022-07-24T14:57:36;7.82;;;6.68;;
5787;SDS011;2920;48.158;12.254;2022-07-24T15:00:03;8.38;;;7.20;;
5787;SDS011;2920;48.158;12.254;2022-07-24T15:02:29;7.77;;;6.97;;
5787;SDS011;2920;48.158;12.254;2022-07-24T15:04:55;7.37;;;6.67;;
5787;SDS011;2920;48.158;12.254;2022-07-24T15:07:20;6.53;;;5.83;;
5787;SDS011;2920;48.158;12.254;2022-07-24T15:09:45;10.27;;;7.00;;
5787;SDS011;2920;48.158;12.254;2022-07-24T15:12:11;7.47;;;6.78;;
5787;SDS011;2920;48.158;12.254;2022-07-24T15:14:36;8.23;;;7.43;;
5787;SDS011;2920;48.158;12.254;2022-07-24T15:17:02;7.70;;;6.97;;
5787;SDS011;2920;48.158;12.254;2022-07-24T15:19:27;16.58;;;7.85;;
5787;SDS011;2920;48.158;12.254;2022-07-24T15:21:53;8.27;;;6.60;;
5787;SDS011;2920;48.158;12.254;2022-07-24T15:24:18;9.55;;;7.40;;
5787;SDS011;2920;48.158;12.254;2022-07-24T15:26:44;7.78;;;6.97;;
5787;SDS011;2920;48.158;12.254;2022-07-24T15:29:09;7.38;;;6.68;;
5787;SDS011;2920;48.158;12.254;2022-07-24T15:31:35;7.55;;;6.60;;
5787;SDS011;2920;48.158;12.254;2022-07-24T15:34:00;10.43;;;6.70;;